Time;durP1;ratioP1;P1;durP2;ratioP2;P2;SDS_P1;SDS_P2;PMS_P1;PMS_P2;Temp;Humidity;BMP_temperature;BMP_pressure;BME280_temperature;BME280_humidity;BME280_pressure;Samples;Min_cycle;Max_cycle;Signal;HPM_P1;HPM_P2
2023/02/03 00:02:16;;;;;;;6.90;3.38;;;;;;;8.12;78.89;101234.59;10347129;28;20057;-45
2023/02/03 00:07:18;;;;;;;5.45;2.67;;;;;;;8.14;78.95;101200.91;10342376;28;20055;-45
2023/02/03 00:12:19;;;;;;;6.78;3.30;;;;;;;8.08;79.26;101174.75;10341823;28;20752;-46
2023/02/03 00:17:20;;;;;;;11.02;3.95;;;;;;;8.04;79.74;101171.38;10339358;28;20164;-46
2023/02/03 00:22:22;;;;;;;6.65;5.40;;;;;;;8.04;79.77;101174.03;10339319;28;20045;-45
2023/02/03 00:27:23;;;;;;;8.50;5.25;;;;;;;8.11;79.53;101182.53;10338352;28;20578;-45
2023/02/03 00:32:25;;;;;;;8.38;4.53;;;;;;;8.19;79.70;101168.84;10341012;28;20194;-45
2023/02/03 00:37:26;;;;;;;4.13;2.55;;;;;;;8.22;79.41;101208.44;10349449;28;20059;-45
2023/02/03 00:42:28;;;;;;;5.55;2.65;;;;;;;8.26;79.38;101208.19;10350853;28;20746;-45
2023/02/03 00:47:30;;;;;;;6.65;2.58;;;;;;;8.21;79.37;101196.13;10350147;28;20048;-45
2023/02/03 00:52:31;;;;;;;4.63;1.90;;;;;;;8.19;79.65;101195.34;10349426;28;20065;-45
2023/02/03 00:57:32;;;;;;;3.15;1.67;;;;;;;8.16;79.86;101167.19;10352951;28;20049;-45
2023/02/03 01:02:34;;;;;;;5.30;1.75;;;;;;;8.10;80.11;101128.63;10349064;28;20081;-45
2023/02/03 01:07:36;;;;;;;4.55;2.00;;;;;;;7.95;81.07;101101.16;10351566;28;20396;-45
2023/02/03 01:12:40;;;;;;;3.73;2.30;;;;;;;7.92;81.17;101132.31;10348883;28;20657;-46
2023/02/03 01:17:41;;;;;;;2.90;1.75;;;;;;;7.92;81.93;101153.50;10350444;28;20157;-46
2023/02/03 01:22:43;;;;;;;2.17;1.55;;;;;;;7.95;82.07;101126.81;10357732;28;20762;-45
2023/02/03 01:27:44;;;;;;;3.10;1.80;;;;;;;7.94;82.56;101135.72;10342478;28;20466;-45
2023/02/03 01:32:46;;;;;;;3.25;1.83;;;;;;;7.88;82.62;101130.75;10349970;28;20088;-45
2023/02/03 01:37:47;;;;;;;3.22;1.40;;;;;;;7.93;82.92;101134.03;10348553;28;20120;-45
2023/02/03 01:42:48;;;;;;;4.10;1.80;;;;;;;7.97;82.78;101124.94;10343264;28;20056;-45
2023/02/03 01:47:54;;;;;;;3.88;1.83;;;;;;;8.07;82.29;101135.91;10347301;28;21058;-44
2023/02/03 01:53:01;;;;;;;2.35;1.50;;;;;;;8.10;82.45;101123.31;10349217;28;20050;-46
2023/02/03 01:58:11;;;;;;;1.88;1.40;;;;;;;8.11;82.11;101105.63;10352744;28;20136;-45
2023/02/03 02:03:14;;;;;;;2.80;1.25;;;;;;;8.11;82.08;101109.13;10348590;28;21052;-50
2023/02/03 02:08:18;;;;;;;1.98;0.88;;;;;;;8.22;82.19;101094.41;10352251;28;20132;-45
2023/02/03 02:13:21;;;;;;;2.40;1.65;;;;;;;8.18;81.99;101090.19;10346331;28;20737;-45
2023/02/03 02:19:00;;;;;;;1.50;1.05;;;;;;;8.17;82.44;101093.78;10352225;28;20072;-45
2023/02/03 02:24:44;;;;;;;1.30;1.08;;;;;;;7.90;82.64;101067.91;10341485;28;20060;-45
2023/02/03 02:30:31;;;;;;;1.40;1.10;;;;;;;8.09;82.86;101118.09;10333513;28;20053;-46
2023/02/03 02:35:42;;;;;;;3.22;0.88;;;;;;;8.10;83.32;101125.13;10349334;28;20045;-45
2023/02/03 02:40:51;;;;;;;1.42;0.85;;;;;;;8.09;83.26;101118.97;10347631;28;20054;-45
2023/02/03 02:45:58;;;;;;;1.95;0.80;;;;;;;8.14;82.91;101122.19;10340146;28;20050;-45
2023/02/03 02:51:02;;;;;;;1.15;0.73;;;;;;;8.16;82.93;101129.22;10342613;28;20042;-45
2023/02/03 02:56:06;;;;;;;2.72;0.80;;;;;;;8.18;82.65;101143.25;10344230;28;21133;-44
2023/02/03 03:01:09;;;;;;;2.47;1.48;;;;;;;8.17;82.99;101136.22;10340844;28;20085;-44
2023/02/03 03:06:17;;;;;;;4.30;1.08;;;;;;;8.19;82.92;101119.28;10342167;28;20080;-45
2023/02/03 03:11:19;;;;;;;1.15;0.82;;;;;;;8.22;83.08;101116.47;10340507;28;20048;-45
2023/02/03 03:16:24;;;;;;;1.80;0.88;;;;;;;8.23;83.21;101120.00;10343296;28;20053;-44
2023/02/03 03:21:34;;;;;;;1.50;0.60;;;;;;;8.12;83.42;101113.50;10345698;28;20052;-44
2023/02/03 03:26:48;;;;;;;0.70;0.50;;;;;;;8.26;84.40;101141.03;10339064;28;20782;-45
2023/02/03 03:31:50;;;;;;;2.42;0.75;;;;;;;8.19;85.47;101113.13;10345633;28;20136;-44
2023/02/03 03:37:14;;;;;;;1.40;0.75;;;;;;;8.11;86.21;101084.41;10342001;28;20703;-45
2023/02/03 03:42:22;;;;;;;0.80;0.50;;;;;;;8.00;87.05;101070.88;10342747;28;20207;-44
2023/02/03 03:47:33;;;;;;;1.90;0.70;;;;;;;8.03;87.11;101076.00;10348411;28;20528;-45
2023/02/03 03:52:36;;;;;;;1.17;0.60;;;;;;;8.12;86.66;101112.59;10345228;28;21155;-44
2023/02/03 03:57:59;;;;;;;1.83;0.70;;;;;;;8.10;86.52;101102.09;10342324;28;20132;-44
2023/02/03 04:03:10;;;;;;;1.05;0.80;;;;;;;8.12;86.18;101073.72;10342286;28;20049;-44
2023/02/03 04:08:11;;;;;;;1.50;0.93;;;;;;;8.13;85.10;101070.09;10339492;28;20135;-45
2023/02/03 04:13:14;;;;;;;1.98;0.50;;;;;;;8.14;84.88;101085.06;10347159;28;20116;-45
2023/02/03 04:18:17;;;;;;;2.13;0.60;;;;;;;8.18;84.87;101107.00;10341226;28;20132;-45
2023/02/03 04:23:18;;;;;;;2.35;0.75;;;;;;;8.19;84.45;101123.75;10341947;28;20192;-45
2023/02/03 04:28:20;;;;;;;1.92;0.70;;;;;;;8.14;84.56;101114.25;10342640;28;20623;-45
2023/02/03 04:33:21;;;;;;;0.80;0.60;;;;;;;8.16;85.13;101081.50;10340337;28;20063;-45
2023/02/03 04:38:22;;;;;;;0.90;0.60;;;;;;;8.12;86.03;101108.19;10343222;28;20064;-44
2023/02/03 04:43:24;;;;;;;1.35;0.47;;;;;;;8.12;87.79;101142.66;10339775;28;20698;-48
2023/02/03 04:48:26;;;;;;;0.63;0.47;;;;;;;8.18;88.03;101137.94;10339639;28;20199;-45
2023/02/03 04:53:28;;;;;;;1.38;0.75;;;;;;;8.19;89.15;101123.75;10341507;28;20080;-45
2023/02/03 04:58:29;;;;;;;1.58;0.90;;;;;;;8.25;89.14;101107.47;10334983;28;20713;-45
2023/02/03 05:03:31;;;;;;;1.05;0.50;;;;;;;8.22;88.70;101099.69;10335403;28;20129;-45
2023/02/03 05:08:32;;;;;;;0.90;0.60;;;;;;;8.03;89.86;101108.72;10340502;28;20049;-45
2023/02/03 05:13:34;;;;;;;1.05;0.80;;;;;;;8.01;90.83;101099.13;10340928;28;20053;-45
2023/02/03 05:18:35;;;;;;;2.53;0.82;;;;;;;7.98;91.15;101070.97;10340358;28;20192;-45
2023/02/03 05:23:36;;;;;;;1.10;0.55;;;;;;;8.00;90.10;101069.09;10344184;28;20123;-45
2023/02/03 05:28:38;;;;;;;1.02;0.60;;;;;;;8.01;90.03;101065.50;10341499;28;20158;-45
2023/02/03 05:33:39;;;;;;;0.88;0.65;;;;;;;8.02;89.86;101053.97;10346478;28;20068;-46
2023/02/03 05:38:41;;;;;;;1.52;0.60;;;;;;;7.99;89.02;101061.22;10346260;28;20054;-45
2023/02/03 05:43:45;;;;;;;2.15;0.80;;;;;;;7.88;88.18;101045.91;10341043;28;20068;-46
2023/02/03 05:48:46;;;;;;;1.83;0.90;;;;;;;7.94;88.01;101051.75;10346461;28;20085;-45
2023/02/03 05:53:48;;;;;;;1.13;0.60;;;;;;;8.02;87.51;101064.56;10347676;28;20060;-47
2023/02/03 05:58:52;;;;;;;1.30;0.85;;;;;;;8.01;87.51;101067.31;10345859;28;20129;-46
2023/02/03 06:03:54;;;;;;;2.40;0.80;;;;;;;7.99;87.92;101070.03;10332366;28;20053;-45
2023/02/03 06:08:55;;;;;;;1.52;1.05;;;;;;;7.96;87.97;101052.50;10339625;28;20228;-45
2023/02/03 06:13:58;;;;;;;2.17;0.93;;;;;;;7.88;87.64;101045.91;10358057;28;20064;-45
2023/02/03 06:19:00;;;;;;;3.50;0.90;;;;;;;7.99;86.84;101051.47;10343577;28;20052;-45
2023/02/03 06:24:02;;;;;;;1.77;1.10;;;;;;;8.03;86.48;101055.69;10343349;28;20577;-45
2023/02/03 06:29:04;;;;;;;3.03;0.75;;;;;;;8.05;85.47;101047.63;10346038;28;20053;-45
2023/02/03 06:34:05;;;;;;;4.78;1.20;;;;;;;8.03;85.51;101037.13;10339634;28;20061;-45
2023/02/03 06:39:07;;;;;;;3.30;1.00;;;;;;;8.06;85.15;101041.38;10343636;28;20049;-44
2023/02/03 06:44:08;;;;;;;2.50;1.00;;;;;;;8.09;84.73;101055.31;10344797;28;20060;-44
2023/02/03 06:49:09;;;;;;;4.57;1.13;;;;;;;8.08;84.24;101069.50;10347843;28;20064;-45
2023/02/03 06:54:12;;;;;;;2.85;0.77;;;;;;;8.10;84.45;101062.31;10346172;28;20075;-44
2023/02/03 06:59:13;;;;;;;3.72;1.23;;;;;;;7.95;84.31;101037.53;10351095;28;20060;-44
2023/02/03 07:04:15;;;;;;;4.38;1.35;;;;;;;8.17;84.32;101061.97;10350047;28;20076;-44
2023/02/03 07:09:17;;;;;;;3.83;2.25;;;;;;;8.11;83.80;101063.19;10343058;28;20064;-45
2023/02/03 07:14:18;;;;;;;2.33;1.17;;;;;;;8.12;84.48;101075.47;10347993;28;20067;-45
2023/02/03 07:19:20;;;;;;;1.70;1.20;;;;;;;8.11;84.34;101087.91;10345946;28;20056;-45
2023/02/03 07:24:21;;;;;;;1.75;1.10;;;;;;;8.09;84.71;101075.66;10349090;28;20429;-45
2023/02/03 07:29:23;;;;;;;3.42;1.30;;;;;;;8.22;86.20;101055.44;10344267;28;20573;-47
2023/02/03 07:34:24;;;;;;;4.13;1.30;;;;;;;8.38;83.07;101066.03;10339481;28;20693;-47
2023/02/03 07:39:25;;;;;;;1.70;1.10;;;;;;;8.35;82.67;101092.75;10341455;28;20097;-45
2023/02/03 07:44:27;;;;;;;1.65;0.70;;;;;;;8.33;82.20;101094.63;10343048;28;20041;-44
2023/02/03 07:49:28;;;;;;;4.80;0.90;;;;;;;8.29;81.30;101087.81;10341568;28;20703;-44
2023/02/03 07:54:29;;;;;;;2.85;1.00;;;;;;;8.33;81.08;101089.31;10344904;28;20058;-45
2023/02/03 07:59:31;;;;;;;3.38;1.33;;;;;;;8.37;80.52;101077.59;10345340;28;20080;-45
2023/02/03 08:04:32;;;;;;;2.78;1.20;;;;;;;8.46;79.93;101105.41;10343033;28;20126;-45
2023/02/03 08:09:34;;;;;;;3.65;1.15;;;;;;;8.41;78.99;101087.09;10346368;28;20199;-45
2023/02/03 08:14:35;;;;;;;2.30;1.23;;;;;;;8.47;78.68;101080.59;10348167;28;20794;-45
2023/02/03 08:19:36;;;;;;;2.47;0.90;;;;;;;8.49;78.62;101078.72;10339618;28;20079;-45
2023/02/03 08:24:38;;;;;;;1.73;0.90;;;;;;;8.51;78.17;101082.13;10346799;28;20053;-50
2023/02/03 08:29:40;;;;;;;2.35;1.00;;;;;;;8.60;78.03;101080.72;10341339;28;20463;-43
2023/02/03 08:34:42;;;;;;;1.73;0.95;;;;;;;8.63;77.17;101075.22;10342081;28;20052;-45
2023/02/03 08:39:43;;;;;;;4.75;1.38;;;;;;;8.72;77.30;101085.31;10344626;28;20115;-44
2023/02/03 08:44:45;;;;;;;3.42;0.93;;;;;;;8.80;75.88;101069.78;10343316;28;20049;-45
2023/02/03 08:49:46;;;;;;;1.67;0.65;;;;;;;8.84;75.40;101052.72;10345791;28;20064;-44
2023/02/03 08:54:48;;;;;;;1.35;0.93;;;;;;;8.91;75.76;101052.34;10344466;28;20061;-45
2023/02/03 08:59:50;;;;;;;2.45;0.88;;;;;;;8.99;74.84;101050.06;10354041;28;20049;-45
2023/02/03 09:04:51;;;;;;;2.50;1.20;;;;;;;9.02;74.29;101024.19;10352677;28;20057;-46
2023/02/03 09:09:53;;;;;;;2.72;1.17;;;;;;;9.12;73.80;101037.75;10352554;28;20459;-45
2023/02/03 09:14:54;;;;;;;4.70;0.95;;;;;;;9.15;73.13;101060.63;10351571;28;20094;-45
2023/02/03 09:19:56;;;;;;;1.27;0.70;;;;;;;9.13;72.58;101044.78;10347603;28;20083;-45
2023/02/03 09:24:57;;;;;;;3.70;0.77;;;;;;;9.20;72.55;101075.34;10353197;28;20058;-45
2023/02/03 09:29:59;;;;;;;1.30;0.65;;;;;;;9.21;72.19;101070.84;10353509;28;20064;-45
2023/02/03 09:35:00;;;;;;;2.50;0.55;;;;;;;9.28;72.20;101058.06;10345982;28;20153;-45
2023/02/03 09:40:02;;;;;;;2.72;0.90;;;;;;;9.40;71.57;101044.00;10347064;28;20052;-53
2023/02/03 09:45:13;;;;;;;2.92;0.77;;;;;;;9.36;71.04;101026.53;10348689;28;20169;-45
2023/02/03 09:50:20;;;;;;;2.65;0.52;;;;;;;9.52;70.45;101037.91;10344716;28;20049;-46
2023/02/03 09:55:27;;;;;;;1.92;0.60;;;;;;;9.69;69.49;101028.00;10351178;28;20551;-49
2023/02/03 10:00:39;;;;;;;3.08;0.95;;;;;;;9.84;68.60;101005.72;10348596;28;20072;-45
2023/02/03 10:06:03;;;;;;;2.78;0.77;;;;;;;9.85;68.39;101026.06;10347565;28;20049;-45
2023/02/03 10:11:21;;;;;;;3.47;1.10;;;;;;;9.82;68.09;101018.28;10349156;28;20053;-45
2023/02/03 10:16:45;;;;;;;3.78;0.77;;;;;;;9.76;68.03;101008.06;10344841;28;20056;-45
2023/02/03 10:21:55;;;;;;;3.60;0.87;;;;;;;9.85;67.93;101010.09;10347158;28;20875;-50
2023/02/03 10:26:57;;;;;;;2.25;0.50;;;;;;;9.82;67.54;101001.47;10351299;28;20519;-46
2023/02/03 10:31:59;;;;;;;3.40;0.82;;;;;;;9.82;68.40;101007.66;10346797;28;20063;-46
2023/02/03 10:37:31;;;;;;;2.28;0.73;;;;;;;9.88;67.82;101031.16;10341064;28;20060;-46
2023/02/03 10:47:54;;;;;;;2.83;0.40;;;;;;;9.85;67.49;101039.34;10346168;28;20492;-45
2023/02/03 10:53:17;;;;;;;2.65;0.68;;;;;;;9.96;67.60;101064.41;10349304;28;20092;-45
2023/02/03 10:58:26;;;;;;;1.95;0.70;;;;;;;10.01;67.40;101054.31;10344586;28;20053;-45
2023/02/03 11:03:28;;;;;;;0.65;0.30;;;;;;;10.15;67.05;101019.69;10343716;28;20505;-48
2023/02/03 11:08:35;;;;;;;1.38;0.73;;;;;;;10.37;66.68;101002.28;10343755;28;20686;-44
2023/02/03 11:13:36;;;;;;;1.35;0.57;;;;;;;10.78;65.30;100990.63;10345400;28;20564;-45
2023/02/03 11:19:01;;;;;;;2.45;0.60;;;;;;;11.52;61.92;100960.53;10344143;28;20054;-50
2023/02/03 11:24:19;;;;;;;1.95;0.60;;;;;;;11.88;60.70;100975.63;10339248;28;20416;-45
2023/02/03 11:29:24;;;;;;;4.35;0.68;;;;;;;11.52;62.26;100981.84;10345305;28;20171;-45
2023/02/03 11:34:36;;;;;;;3.60;0.57;;;;;;;11.17;63.36;100995.91;10346399;28;20781;-45
2023/02/03 11:39:38;;;;;;;1.95;0.52;;;;;;;10.61;65.99;101027.25;10346926;28;20103;-46
2023/02/03 11:44:39;;;;;;;4.70;1.75;;;;;;;10.42;67.19;101017.00;10344996;28;20049;-44
2023/02/03 11:49:47;;;;;;;1.23;0.40;;;;;;;10.25;68.36;101017.25;10345406;28;20041;-45
2023/02/03 11:55:37;;;;;;;0.95;0.60;;;;;;;10.14;68.61;100991.34;10347391;28;20046;-45
2023/02/03 12:00:47;;;;;;;2.97;1.08;;;;;;;10.00;69.53;100978.16;10341118;28;20076;-45
2023/02/03 12:06:23;;;;;;;2.30;0.40;;;;;;;10.16;69.63;100976.13;10342355;28;20046;-44
2023/02/03 12:11:42;;;;;;;2.05;0.60;;;;;;;10.14;70.05;100953.28;10333087;28;20649;-47
2023/02/03 12:17:03;;;;;;;2.08;0.45;;;;;;;10.07;70.66;100936.84;10337901;28;20049;-44
2023/02/03 12:22:28;;;;;;;1.55;0.40;;;;;;;9.95;72.12;100922.56;10334194;28;20821;-45
2023/02/03 12:27:38;;;;;;;;;;;;;;;9.79;73.47;100927.22;10339208;28;20567;-45
2023/02/03 12:32:50;;;;;;;0.82;0.50;;;;;;;9.71;74.29;100925.06;10340206;28;19925;-45
2023/02/03 12:37:58;;;;;;;1.30;0.45;;;;;;;9.60;76.27;100951.50;10340186;28;20057;-45
2023/02/03 12:43:16;;;;;;;5.13;0.80;;;;;;;9.50;79.00;100984.00;10343625;28;20546;-46
2023/02/03 12:48:23;;;;;;;3.72;0.63;;;;;;;9.35;79.98;100979.66;10338628;28;20045;-46
2023/02/03 12:53:34;;;;;;;1.35;0.28;;;;;;;9.40;80.43;100990.88;10328838;28;20142;-45
2023/02/03 12:58:38;;;;;;;3.38;0.77;;;;;;;9.34;81.66;100959.38;10344494;28;20042;-48
2023/02/03 13:03:47;;;;;;;1.92;0.60;;;;;;;9.26;84.22;100956.34;10339565;28;20115;-45
2023/02/03 13:09:21;;;;;;;1.95;0.57;;;;;;;9.16;85.94;100946.31;10341028;28;20583;-45
2023/02/03 13:14:30;;;;;;;3.28;0.60;;;;;;;9.05;87.84;100927.53;10337385;28;20053;-46
2023/02/03 13:19:44;;;;;;;1.92;0.57;;;;;;;8.93;89.85;100918.56;10338635;28;20057;-45
2023/02/03 13:24:55;;;;;;;2.60;0.60;;;;;;;8.81;90.61;100924.63;10329852;28;20077;-46
2023/02/03 13:30:06;;;;;;;2.08;0.70;;;;;;;8.80;91.39;100937.03;10334914;28;20049;-45
2023/02/03 13:35:33;;;;;;;3.30;1.00;;;;;;;8.77;91.72;100934.59;10339960;28;20049;-45
2023/02/03 13:40:59;;;;;;;1.45;0.60;;;;;;;8.82;92.72;100943.09;10313080;28;20049;-46
2023/02/03 13:46:01;;;;;;;3.15;0.73;;;;;;;8.94;92.60;100938.81;10341190;28;20061;-45
2023/02/03 13:51:14;;;;;;;2.20;1.38;;;;;;;9.04;92.89;100939.13;10341289;28;20055;-46
2023/02/03 13:56:22;;;;;;;1.98;0.80;;;;;;;8.94;93.12;100935.34;10343712;28;20114;-45
2023/02/03 14:01:29;;;;;;;1.15;0.88;;;;;;;8.99;93.73;100911.97;10343018;28;20060;-46
2023/02/03 14:06:36;;;;;;;2.45;0.95;;;;;;;9.04;94.53;100931.16;10343756;28;20707;-44
2023/02/03 14:11:40;;;;;;;1.33;0.65;;;;;;;9.05;94.89;100961.22;10342025;28;21131;-45
2023/02/03 14:16:48;;;;;;;1.23;0.50;;;;;;;8.97;95.42;100956.38;10346003;28;20049;-46
2023/02/03 14:21:57;;;;;;;2.17;0.43;;;;;;;8.88;97.45;100952.50;10342419;28;20574;-46
2023/02/03 14:27:02;;;;;;;2.28;0.50;;;;;;;8.97;98.52;100967.00;10341429;28;20064;-46
2023/02/03 14:32:06;;;;;;;2.03;0.50;;;;;;;8.92;99.06;100985.03;10341736;28;20046;-45
2023/02/03 14:37:22;;;;;;;1.95;1.42;;;;;;;8.95;98.58;100984.84;10338470;28;20095;-45
2023/02/03 14:42:35;;;;;;;1.83;1.27;;;;;;;8.93;99.62;100970.78;10341590;28;20148;-45
2023/02/03 14:48:22;;;;;;;1.17;0.60;;;;;;;8.91;100.00;100956.75;10344169;28;20085;-45
2023/02/03 14:53:32;;;;;;;2.33;1.00;;;;;;;8.85;99.84;100958.84;10294022;28;21137;-45
2023/02/03 14:58:55;;;;;;;2.92;0.93;;;;;;;8.91;100.00;100956.75;10341916;28;20064;-46
2023/02/03 15:04:28;;;;;;;2.17;0.70;;;;;;;9.10;100.00;100983.88;10342679;28;20060;-50
2023/02/03 15:09:47;;;;;;;2.28;0.90;;;;;;;9.14;99.16;100996.03;10318583;28;20130;-46
2023/02/03 15:14:49;;;;;;;1.80;0.80;;;;;;;9.18;98.32;100994.84;10345616;28;20811;-45
2023/02/03 15:19:51;;;;;;;5.80;1.08;;;;;;;9.19;98.13;100991.25;10343628;28;20942;-46
2023/02/03 15:24:59;;;;;;;1.00;0.70;;;;;;;9.11;98.54;100996.22;10341746;28;20084;-46
2023/02/03 15:30:26;;;;;;;0.90;0.45;;;;;;;9.17;98.21;101006.47;10348170;28;20570;-45
2023/02/03 15:35:30;;;;;;;1.30;0.70;;;;;;;9.24;97.69;101011.38;10341791;28;20057;-46
2023/02/03 15:40:37;;;;;;;2.35;0.82;;;;;;;9.18;97.41;101018.75;10342441;28;20649;-47
2023/02/03 15:45:44;;;;;;;2.53;0.80;;;;;;;9.26;98.20;101001.50;10343832;28;20522;-46
2023/02/03 15:50:52;;;;;;;1.10;0.73;;;;;;;9.25;98.74;101002.44;10348542;28;20061;-47
2023/02/03 15:55:58;;;;;;;2.53;1.00;;;;;;;9.23;99.33;101004.34;10346696;28;20879;-46
2023/02/03 16:01:04;;;;;;;1.40;0.85;;;;;;;9.05;99.10;100985.94;10347789;28;20056;-46
2023/02/03 16:06:23;;;;;;;2.65;0.95;;;;;;;9.23;99.20;101010.50;10339311;28;20853;-47
2023/02/03 16:11:35;;;;;;;1.10;0.85;;;;;;;9.25;99.49;101018.38;10344534;28;20045;-47
2023/02/03 16:16:40;;;;;;;1.45;1.02;;;;;;;9.29;99.23;101020.78;10252078;23;20839;-48
2023/02/03 16:21:58;;;;;;;2.38;1.30;;;;;;;9.28;98.95;101028.84;10228334;28;20061;-48
2023/02/03 16:27:25;;;;;;;1.67;1.00;;;;;;;9.33;98.97;101042.69;10212541;28;20074;-47
2023/02/03 16:53:52;;;;;;;2.55;1.15;;;;;;;9.25;98.62;101036.97;10226193;28;20066;-47
2023/02/03 16:58:54;;;;;;;2.25;1.50;;;;;;;9.24;98.75;101032.63;10229323;28;20827;-47
2023/02/03 17:03:55;;;;;;;1.75;1.60;;;;;;;9.26;99.38;101030.72;10229111;28;20504;-46
2023/02/03 17:08:57;;;;;;;3.95;1.95;;;;;;;9.25;99.87;101039.63;10231472;28;20050;-47
2023/02/03 17:13:59;;;;;;;2.33;1.75;;;;;;;9.23;100.00;101041.53;10230850;28;20078;-47
2023/02/03 17:19:01;;;;;;;2.70;1.70;;;;;;;9.26;99.85;101047.50;10230758;28;20131;-49
2023/02/03 17:24:02;;;;;;;3.80;1.58;;;;;;;9.27;99.55;101066.97;10235695;28;20711;-48
2023/02/03 17:29:04;;;;;;;2.70;1.98;;;;;;;9.18;99.70;101053.28;10231739;28;20054;-46
2023/02/03 17:34:05;;;;;;;2.65;2.25;;;;;;;9.27;99.90;101074.94;10228114;28;20059;-47
2023/02/03 17:39:06;;;;;;;3.15;2.38;;;;;;;9.30;99.41;101070.28;10236392;28;20050;-47
2023/02/03 17:44:26;;;;;;;4.32;2.63;;;;;;;9.26;100.00;101087.34;10231729;28;20385;-46
2023/02/03 17:49:48;;;;;;;3.28;2.95;;;;;;;9.24;100.00;101085.75;10233325;28;20121;-47
2023/02/03 17:55:07;;;;;;;5.25;3.97;;;;;;;9.25;100.00;101092.75;10233668;28;20039;-47
2023/02/03 18:00:09;;;;;;;7.85;4.28;;;;;;;9.21;100.00;101124.00;10238871;28;20440;-47
2023/02/03 18:05:11;;;;;;;5.60;3.83;;;;;;;9.18;100.00;101132.16;10250964;28;20063;-47
2023/02/03 18:10:12;;;;;;;6.65;4.03;;;;;;;9.23;100.00;101134.53;10237660;28;20081;-48
2023/02/03 18:15:14;;;;;;;6.10;3.95;;;;;;;9.22;100.00;101122.19;10238927;28;20768;-47
2023/02/03 18:20:15;;;;;;;6.03;4.35;;;;;;;9.74;100.00;101134.91;10236354;28;20055;-48
2023/02/03 18:25:17;;;;;;;5.20;3.38;;;;;;;9.61;99.07;101129.50;10226221;28;20058;-48
2023/02/03 18:30:20;;;;;;;4.65;2.85;;;;;;;9.54;95.47;101121.03;10234831;28;20172;-46
2023/02/03 18:35:22;;;;;;;6.07;2.90;;;;;;;9.52;91.92;101125.63;10234057;28;20042;-52
2023/02/03 18:40:24;;;;;;;8.18;2.95;;;;;;;9.46;85.45;101141.94;10232373;28;20081;-47
2023/02/03 18:45:26;;;;;;;10.05;3.35;;;;;;;9.42;85.34;101161.69;10237772;28;20474;-47
2023/02/03 18:50:27;;;;;;;10.68;3.83;;;;;;;9.36;83.08;101154.94;10237695;28;20062;-46
2023/02/03 18:55:29;;;;;;;9.02;2.40;;;;;;;9.34;80.82;101156.84;10233760;28;20070;-46
2023/02/03 19:00:30;;;;;;;10.65;3.00;;;;;;;9.32;80.76;101163.19;10233964;28;20109;-47
2023/02/03 19:05:32;;;;;;;10.18;2.47;;;;;;;9.35;79.34;101170.97;10234956;28;20480;-47
2023/02/03 19:10:34;;;;;;;6.00;2.67;;;;;;;9.24;78.95;101182.25;10228842;28;20054;-47
2023/02/03 19:15:36;;;;;;;9.25;3.03;;;;;;;9.32;78.71;101176.47;10233115;28;20050;-48
2023/02/03 19:20:37;;;;;;;11.50;3.88;;;;;;;9.31;77.80;101178.28;10228125;28;20994;-47
2023/02/03 19:25:39;;;;;;;14.20;4.00;;;;;;;9.36;77.62;101193.94;10225151;28;20061;-47
2023/02/03 19:30:40;;;;;;;10.20;3.20;;;;;;;9.42;80.59;101203.34;10222924;28;20059;-46
2023/02/03 19:35:42;;;;;;;12.00;3.28;;;;;;;9.28;77.38;101198.88;10228229;28;20051;-51
2023/02/03 19:40:44;;;;;;;14.82;4.35;;;;;;;9.38;78.04;101205.31;10228631;28;20703;-47
2023/02/03 19:45:45;;;;;;;15.18;4.35;;;;;;;9.40;78.12;101205.22;10231238;28;20054;-47
2023/02/03 19:50:47;;;;;;;12.80;3.42;;;;;;;9.46;78.08;101213.69;10234979;28;20569;-47
2023/02/03 19:55:48;;;;;;;12.70;4.05;;;;;;;9.50;77.40;101225.88;10231288;28;20066;-46
2023/02/03 20:00:50;;;;;;;14.02;3.28;;;;;;;9.54;79.18;101235.34;10229653;28;20562;-46
2023/02/03 20:05:52;;;;;;;7.78;2.90;;;;;;;9.41;77.32;101237.03;10231372;28;20130;-46
2023/02/03 20:10:53;;;;;;;9.43;3.75;;;;;;;9.28;76.90;101233.41;10231617;28;20047;-47
2023/02/03 20:15:55;;;;;;;11.18;3.40;;;;;;;9.25;78.86;101241.53;10234420;28;20069;-47
2023/02/03 20:20:58;;;;;;;10.85;4.45;;;;;;;9.40;79.50;101240.66;10233959;28;21298;-47
2023/02/03 20:26:00;;;;;;;9.93;3.33;;;;;;;9.51;78.69;101259.44;10232519;28;20494;-47
2023/02/03 20:31:03;;;;;;;13.30;3.78;;;;;;;9.39;77.69;101249.56;10230987;28;20054;-47
2023/02/03 20:36:05;;;;;;;10.65;3.25;;;;;;;9.47;78.89;101257.94;10230169;28;20035;-47
2023/02/03 20:41:16;;;;;;;9.73;3.22;;;;;;;9.34;76.90;101271.09;10233622;28;20582;-47
2023/02/03 20:46:18;;;;;;;9.18;2.85;;;;;;;9.06;76.00;101269.19;10232760;28;20433;-47
2023/02/03 20:51:21;;;;;;;15.50;4.18;;;;;;;9.08;77.39;101251.34;10236115;28;20681;-47
2023/02/03 20:56:22;;;;;;;5.82;2.92;;;;;;;9.01;75.27;101258.00;10248318;28;20092;-47
2023/02/03 21:01:24;;;;;;;10.90;3.72;;;;;;;8.95;75.89;101267.16;10237800;28;20061;-48
2023/02/03 21:06:27;;;;;;;6.72;2.75;;;;;;;9.17;75.92;101280.06;10231941;28;20106;-48
2023/02/03 21:11:29;;;;;;;8.18;3.55;;;;;;;9.13;74.29;101270.56;10238639;28;20510;-47
2023/02/03 21:16:39;;;;;;;12.00;3.38;;;;;;;8.97;73.95;101265.25;10235771;28;20062;-46
2023/02/03 21:21:41;;;;;;;10.23;3.72;;;;;;;9.01;74.11;101287.22;10233718;28;20109;-46
2023/02/03 21:26:42;;;;;;;8.25;3.45;;;;;;;8.88;74.50;101278.22;10240271;28;20050;-47
2023/02/03 21:31:44;;;;;;;10.65;3.40;;;;;;;8.90;73.54;101279.81;10225952;28;20145;-47
2023/02/03 21:36:45;;;;;;;8.48;3.58;;;;;;;8.79;75.17;101285.75;10248464;28;20065;-47
2023/02/03 21:41:47;;;;;;;16.13;4.18;;;;;;;8.73;72.53;101304.69;10234474;28;20051;-47
2023/02/03 21:46:48;;;;;;;12.10;4.10;;;;;;;8.73;72.55;101303.84;10235291;28;20070;-47
2023/02/03 21:51:49;;;;;;;14.25;4.05;;;;;;;8.65;72.72;101326.34;10250453;28;20085;-47
2023/02/03 21:56:52;;;;;;;15.18;4.25;;;;;;;8.67;73.80;101315.66;10236937;28;20054;-47
2023/02/03 22:01:57;;;;;;;12.02;3.25;;;;;;;8.55;71.23;101333.09;10237830;28;20055;-47
2023/02/03 22:06:58;;;;;;;11.88;4.30;;;;;;;8.46;71.82;101339.75;10235250;28;20121;-47
2023/02/03 22:12:00;;;;;;;13.35;3.67;;;;;;;8.35;72.51;101341.25;10234254;28;20149;-47
2023/02/03 22:17:01;;;;;;;12.35;4.20;;;;;;;8.33;72.36;101344.00;10202402;28;1045573;-47
2023/02/03 22:22:03;;;;;;;13.90;3.30;;;;;;;8.30;71.69;101365.38;10238664;28;20051;-46
2023/02/03 22:27:05;;;;;;;12.63;3.40;;;;;;;8.24;71.84;101368.34;10236007;28;20224;-47
2023/02/03 22:32:06;;;;;;;7.95;2.78;;;;;;;8.32;71.37;101363.53;10233747;28;20168;-46
2023/02/03 22:37:08;;;;;;;13.45;3.40;;;;;;;8.16;70.80;101373.22;10233801;28;20685;-46
2023/02/03 22:42:09;;;;;;;10.45;2.80;;;;;;;8.18;70.79;101381.94;10234048;28;20054;-46
2023/02/03 22:47:10;;;;;;;8.73;2.75;;;;;;;8.18;70.32;101384.59;10256066;28;20137;-45
2023/02/03 22:52:12;;;;;;;7.72;2.67;;;;;;;8.16;70.35;101395.28;10257210;28;20616;-47
2023/02/03 22:57:13;;;;;;;10.13;2.75;;;;;;;8.19;70.77;101410.19;10253637;28;20149;-47
2023/02/03 23:02:15;;;;;;;7.30;2.88;;;;;;;8.17;71.34;101391.72;10258062;28;21325;-47
2023/02/03 23:07:17;;;;;;;6.07;3.13;;;;;;;8.39;71.07;101414.44;10258221;28;20066;-46
2023/02/03 23:12:18;;;;;;;9.48;2.65;;;;;;;8.39;69.98;101412.66;10253763;28;20058;-47
2023/02/03 23:17:20;;;;;;;9.85;3.83;;;;;;;8.28;69.52;101407.06;10254051;28;20050;-46
2023/02/03 23:22:21;;;;;;;9.50;3.50;;;;;;;8.39;69.90;101423.28;10255581;28;20134;-47
2023/02/03 23:27:23;;;;;;;7.78;3.08;;;;;;;8.43;69.85;101427.47;10254319;28;20248;-46
2023/02/03 23:32:24;;;;;;;12.07;3.65;;;;;;;8.50;70.25;101438.66;10260222;28;20161;-45
2023/02/03 23:37:26;;;;;;;8.40;2.75;;;;;;;8.47;68.56;101431.72;10258400;28;20051;-47
2023/02/03 23:42:27;;;;;;;7.57;3.85;;;;;;;8.53;67.08;101456.19;10256816;28;20679;-47
2023/02/03 23:47:29;;;;;;;7.03;2.85;;;;;;;8.44;68.85;101452.25;10258555;28;20133;-47
2023/02/03 23:52:34;;;;;;;8.60;3.00;;;;;;;8.57;68.72;101460.41;10252536;28;20056;-47
2023/02/03 23:57:36;;;;;;;8.55;3.75;;;;;;;8.49;68.80;101466.97;10256704;28;20057;-46
